Terminal Aerodrome Forecast
Issued by NWS

Home | Current Version | Previous Version | Text Only | Print | Product List | Glossary Off
Versions: 1 2 3 4 5 6 7 8 9 10 11 12 13 14

515
FTUS42 KMHX 241140
TAFOAJ
TAF
KOAJ 241140Z 2412/2512 09008KT P6SM SCT150
     FM250600 00000KT 3SM BR SCT090
      TEMPO 2506/2509 1SM BR SCT005
     FM250900 00000KT 1SM BR OVC005
      AMD LTD TO CLD VIS AND WIND=

USA.gov is the U.S. government's official web portal to all federal, state and local government web resources and services.